Time;durP1;ratioP1;P1;durP2;ratioP2;P2;SDS_P1;SDS_P2;PMS_P1;PMS_P2;Temp;Humidity;BMP_temperature;BMP_pressure;BME280_temperature;BME280_humidity;BME280_pressure;Samples;Min_cycle;Max_cycle;Signal;HPM_P1;HPM_P2
2022/10/23 00:00:58;;;;;;;3.37;2.67;;;8.40;99.90;;;;;;5105464;28;20490;-76
2022/10/23 00:03:24;;;;;;;3.37;2.57;;;8.50;99.90;;;;;;5107809;28;20913;-76
2022/10/23 00:05:53;;;;;;;3.73;3.20;;;8.60;99.90;;;;;;5111856;27;20521;-76
2022/10/23 00:08:20;;;;;;;4.47;2.63;;;8.60;99.90;;;;;;5105378;28;20477;-76
2022/10/23 00:10:47;;;;;;;3.40;3.10;;;8.60;99.90;;;;;;5103598;28;21890;-76
2022/10/23 00:13:14;;;;;;;4.50;3.00;;;8.60;99.90;;;;;;5111486;28;20488;-76
2022/10/23 00:15:41;;;;;;;4.70;3.47;;;8.50;99.90;;;;;;5105665;28;20521;-76
2022/10/23 00:18:07;;;;;;;2.90;2.70;;;8.50;99.90;;;;;;5112396;28;20806;-76
2022/10/23 00:20:34;;;;;;;192.67;29.87;;;8.40;99.90;;;;;;5108434;27;20962;-76
2022/10/23 00:23:03;;;;;;;3.67;3.30;;;8.40;99.90;;;;;;5106402;27;20449;-76
2022/10/23 00:25:31;;;;;;;15.13;5.70;;;8.40;99.90;;;;;;5112462;27;20489;-76
2022/10/23 00:27:58;;;;;;;119.30;23.33;;;8.40;99.90;;;;;;5110641;27;20593;-77
2022/10/23 00:30:25;;;;;;;27.77;5.50;;;8.40;99.90;;;;;;5117686;27;20464;-77
2022/10/23 00:32:52;;;;;;;77.97;14.10;;;8.40;99.90;;;;;;5108519;27;20542;-76
2022/10/23 00:35:19;;;;;;;5.20;3.70;;;8.40;99.90;;;;;;5109735;27;20457;-77
2022/10/23 00:37:46;;;;;;;9.33;4.10;;;8.30;99.90;;;;;;5110043;28;20489;-76
2022/10/23 00:40:14;;;;;;;8.10;4.87;;;8.40;99.90;;;;;;5105452;27;20458;-76
2022/10/23 00:42:41;;;;;;;104.83;18.33;;;8.40;99.90;;;;;;5104679;28;20983;-76
2022/10/23 00:45:12;;;;;;;44.17;8.80;;;8.40;99.90;;;;;;5105794;28;20535;-76
2022/10/23 00:47:39;;;;;;;55.80;10.07;;;8.40;99.90;;;;;;5107606;28;20605;-76
2022/10/23 00:50:07;;;;;;;69.43;10.50;;;8.30;99.90;;;;;;5113149;28;20920;-76
2022/10/23 00:52:37;;;;;;;56.77;9.47;;;8.20;99.90;;;;;;5118811;28;20547;-76
2022/10/23 00:55:05;;;;;;;6.23;2.43;;;8.30;99.90;;;;;;5118022;27;20512;-76
2022/10/23 00:57:33;;;;;;;4.40;2.70;;;8.30;99.90;;;;;;5105623;28;20458;-76
2022/10/23 01:00:00;;;;;;;34.27;4.43;;;8.30;99.90;;;;;;5106613;28;20776;-76
2022/10/23 01:02:27;;;;;;;3.70;2.90;;;8.20;99.90;;;;;;5110704;28;20523;-76
2022/10/23 01:04:54;;;;;;;17.77;4.80;;;8.10;99.90;;;;;;5113009;27;20510;-76
2022/10/23 01:07:29;;;;;;;31.10;6.07;;;8.10;99.90;;;;;;5108800;27;21007;-76
2022/10/23 01:10:03;;;;;;;128.67;21.80;;;8.10;99.90;;;;;;5116772;27;20536;-76
2022/10/23 01:12:42;;;;;;;113.43;19.73;;;8.10;99.90;;;;;;5118273;27;20468;-76
2022/10/23 01:15:16;;;;;;;49.60;9.40;;;8.10;99.90;;;;;;5110971;27;20513;-76
2022/10/23 01:17:48;;;;;;;21.37;5.17;;;8.20;99.90;;;;;;5108516;27;20454;-75
2022/10/23 01:20:32;;;;;;;9.23;4.03;;;8.20;99.90;;;;;;5118766;27;20464;-78
2022/10/23 01:23:14;;;;;;;31.37;3.93;;;8.20;99.90;;;;;;5107678;27;20522;-76
2022/10/23 01:25:58;;;;;;;13.53;2.90;;;8.10;99.90;;;;;;5114041;27;20460;-75
2022/10/23 01:28:32;;;;;;;26.13;3.80;;;7.90;99.90;;;;;;5111910;27;20521;-75
2022/10/23 01:31:04;;;;;;;19.83;3.30;;;7.90;99.90;;;;;;5117861;27;21017;-75
2022/10/23 01:33:38;;;;;;;13.47;3.07;;;7.60;99.90;;;;;;5117404;27;20765;-75
2022/10/23 01:36:09;;;;;;;11.73;5.67;;;7.50;99.90;;;;;;5110678;27;21132;-75
2022/10/23 01:38:42;;;;;;;24.60;6.20;;;7.50;99.90;;;;;;5107796;27;20547;-75
2022/10/23 01:41:14;;;;;;;7.53;3.60;;;7.40;99.90;;;;;;5115611;27;20457;-75
2022/10/23 01:43:46;;;;;;;8.60;4.13;;;7.40;99.90;;;;;;5113079;27;20518;-75
2022/10/23 01:46:16;;;;;;;28.93;7.07;;;7.40;99.90;;;;;;5115568;27;20990;-75
2022/10/23 01:48:50;;;;;;;51.70;7.10;;;7.50;99.90;;;;;;5105674;27;20509;-75
2022/10/23 01:51:18;;;;;;;12.77;5.13;;;7.60;99.90;;;;;;5105684;27;20453;-74
2022/10/23 01:53:48;;;;;;;12.87;5.80;;;7.50;99.90;;;;;;5106912;27;20462;-75
2022/10/23 01:56:19;;;;;;;8.80;5.30;;;7.50;99.90;;;;;;5110131;27;20539;-75
2022/10/23 01:58:50;;;;;;;22.43;6.03;;;7.40;99.90;;;;;;5105135;27;20485;-75
2022/10/23 02:01:21;;;;;;;4.37;3.97;;;7.40;99.90;;;;;;5113449;27;20918;-75
2022/10/23 02:03:50;;;;;;;4.07;3.70;;;7.30;99.90;;;;;;5116301;27;20487;-75
2022/10/23 02:06:18;;;;;;;2.90;2.30;;;7.20;99.90;;;;;;5114737;27;20993;-76
2022/10/23 02:08:45;;;;;;;7.23;4.30;;;7.20;99.90;;;;;;5113553;27;20481;-76
2022/10/23 02:11:14;;;;;;;7.20;3.87;;;7.30;99.90;;;;;;5107433;27;20846;-76
2022/10/23 02:13:46;;;;;;;2.23;2.13;;;7.30;99.90;;;;;;5116982;27;20466;-76
2022/10/23 02:16:23;;;;;;;108.20;19.27;;;7.20;99.90;;;;;;5115439;27;20537;-75
2022/10/23 02:18:56;;;;;;;38.20;7.77;;;7.10;99.90;;;;;;5116478;27;20489;-76
2022/10/23 02:21:29;;;;;;;10.50;3.27;;;7.20;99.90;;;;;;5115500;27;20514;-76
2022/10/23 02:24:01;;;;;;;14.33;4.20;;;7.10;99.90;;;;;;5113320;27;20456;-76
2022/10/23 02:26:34;;;;;;;57.40;11.70;;;7.20;99.90;;;;;;5113162;27;20465;-75
2022/10/23 02:29:07;;;;;;;62.20;8.70;;;7.30;99.90;;;;;;5107338;27;20521;-75
2022/10/23 02:31:35;;;;;;;22.83;3.53;;;7.40;99.90;;;;;;5110548;27;20462;-76
2022/10/23 02:34:02;;;;;;;2.60;2.17;;;7.50;99.90;;;;;;5117588;27;20518;-77
2022/10/23 02:36:29;;;;;;;2.13;1.93;;;7.60;99.90;;;;;;5115118;27;20460;-76
2022/10/23 02:38:56;;;;;;;4.87;2.07;;;7.60;99.90;;;;;;5106790;27;20450;-76
2022/10/23 02:41:34;;;;;;;8.67;3.20;;;7.60;99.90;;;;;;5108295;27;20458;-76
2022/10/23 02:44:15;;;;;;;20.77;8.60;;;7.70;99.90;;;;;;5109068;27;20458;-75
2022/10/23 02:46:52;;;;;;;38.03;10.60;;;7.90;99.90;;;;;;5113121;27;20533;-76
2022/10/23 02:49:24;;;;;;;13.20;8.40;;;8.20;99.90;;;;;;5112450;27;20870;-76
2022/10/23 02:52:04;;;;;;;14.13;6.77;;;8.30;99.90;;;;;;5109227;27;20542;-76
2022/10/23 02:54:43;;;;;;;21.00;8.53;;;8.30;99.90;;;;;;5110814;27;20549;-76
2022/10/23 02:57:19;;;;;;;11.47;5.47;;;8.30;99.90;;;;;;5111731;27;20944;-76
2022/10/23 02:59:53;;;;;;;5.33;3.33;;;8.20;99.90;;;;;;5105483;27;20514;-76
2022/10/23 03:02:25;;;;;;;36.00;9.90;;;8.10;99.90;;;;;;5115219;27;20472;-76
2022/10/23 03:04:54;;;;;;;40.47;11.00;;;8.10;99.90;;;;;;5109506;27;20578;-75
2022/10/23 03:07:21;;;;;;;50.17;17.27;;;8.20;99.90;;;;;;5108212;27;20462;-76
2022/10/23 03:09:48;;;;;;;11.60;8.00;;;8.20;99.90;;;;;;5102494;27;20486;-76
2022/10/23 03:12:15;;;;;;;10.50;7.73;;;8.20;99.90;;;;;;5111645;27;20461;-76
2022/10/23 03:14:41;;;;;;;13.03;8.07;;;8.10;99.90;;;;;;5113108;27;20461;-75
2022/10/23 03:17:09;;;;;;;22.47;9.20;;;8.10;99.90;;;;;;5120179;27;20538;-76
2022/10/23 03:19:37;;;;;;;21.67;9.70;;;8.10;99.90;;;;;;5112879;27;20523;-76
2022/10/23 03:22:04;;;;;;;21.53;6.57;;;8.10;99.90;;;;;;5119971;27;20453;-76
2022/10/23 03:24:31;;;;;;;116.60;25.77;;;8.00;99.90;;;;;;5108737;27;20795;-76
2022/10/23 03:26:58;;;;;;;54.07;14.50;;;8.00;99.90;;;;;;5117432;27;20480;-75
2022/10/23 03:29:25;;;;;;;24.67;8.50;;;7.90;99.90;;;;;;5116775;27;20539;-76
2022/10/23 03:31:54;;;;;;;13.00;7.20;;;7.80;99.90;;;;;;5115118;27;20496;-76
2022/10/23 03:34:21;;;;;;;54.47;14.60;;;7.70;99.90;;;;;;5114496;27;20493;-76
2022/10/23 03:36:49;;;;;;;8.90;6.27;;;7.60;99.90;;;;;;5112329;27;21232;-76
2022/10/23 03:39:17;;;;;;;34.50;8.83;;;7.40;99.90;;;;;;5111078;27;20913;-76
2022/10/23 03:41:44;;;;;;;8.43;5.20;;;7.30;99.90;;;;;;5103173;27;20805;-76
2022/10/23 03:44:10;;;;;;;4.40;3.60;;;7.30;99.90;;;;;;5116912;27;20493;-76
2022/10/23 03:46:39;;;;;;;4.60;4.20;;;7.20;99.90;;;;;;5105967;27;20569;-76
2022/10/23 03:49:06;;;;;;;7.63;3.97;;;7.10;99.90;;;;;;5106302;27;20516;-76
2022/10/23 03:51:33;;;;;;;42.10;8.67;;;7.10;99.90;;;;;;5111077;28;20461;-76
2022/10/23 03:54:02;;;;;;;49.53;13.70;;;7.00;99.90;;;;;;5108889;28;20497;-75
2022/10/23 03:56:29;;;;;;;14.60;4.80;;;7.10;99.90;;;;;;5107037;27;21029;-76
2022/10/23 03:58:56;;;;;;;22.03;4.40;;;7.10;99.90;;;;;;5112136;28;20925;-76
2022/10/23 04:01:23;;;;;;;25.77;7.30;;;7.00;99.90;;;;;;5105150;28;20524;-75
2022/10/23 04:03:50;;;;;;;11.80;5.90;;;7.10;99.90;;;;;;5110010;28;20549;-76
2022/10/23 04:06:17;;;;;;;34.63;10.50;;;7.10;99.90;;;;;;5104094;28;20537;-76
2022/10/23 04:08:44;;;;;;;31.23;9.17;;;7.10;99.90;;;;;;5105428;27;20557;-76
2022/10/23 04:11:12;;;;;;;42.57;9.97;;;7.10;99.90;;;;;;5113696;27;20470;-76
2022/10/23 04:13:39;;;;;;;6.80;5.80;;;7.10;99.90;;;;;;5104556;28;20506;-76
2022/10/23 04:16:06;;;;;;;12.13;8.80;;;7.00;99.90;;;;;;5110051;28;20972;-75
2022/10/23 04:18:33;;;;;;;5.93;5.33;;;6.90;99.90;;;;;;5109180;28;20552;-75
2022/10/23 04:21:00;;;;;;;41.23;9.10;;;6.80;99.90;;;;;;5105270;28;20520;-76
2022/10/23 04:23:27;;;;;;;11.47;5.73;;;6.80;99.90;;;;;;5116344;28;20821;-76
2022/10/23 04:25:56;;;;;;;24.27;10.10;;;6.80;99.90;;;;;;5108611;27;20570;-76
2022/10/23 04:28:25;;;;;;;76.67;12.40;;;6.90;99.90;;;;;;5110524;28;20496;-76
2022/10/23 04:30:52;;;;;;;49.10;13.57;;;6.90;99.90;;;;;;5108469;27;20485;-76
2022/10/23 04:33:19;;;;;;;85.67;15.37;;;7.00;99.90;;;;;;5112415;28;20554;-75
2022/10/23 04:35:46;;;;;;;61.60;12.80;;;7.10;99.90;;;;;;5113201;28;20546;-75
2022/10/23 04:38:13;;;;;;;67.03;30.17;;;7.20;99.90;;;;;;5117126;27;20923;-76
2022/10/23 04:40:40;;;;;;;63.00;27.47;;;7.30;99.90;;;;;;5118815;27;20462;-76
2022/10/23 04:43:07;;;;;;;115.73;33.90;;;7.30;99.90;;;;;;5117869;27;20489;-75
2022/10/23 04:45:36;;;;;;;483.63;232.97;;;7.30;99.90;;;;;;5109437;27;20462;-76
2022/10/23 04:48:03;;;;;;;597.27;336.30;;;7.40;99.90;;;;;;5109577;27;21054;-76
2022/10/23 04:50:30;;;;;;;147.23;67.83;;;7.60;99.90;;;;;;5117181;27;20492;-75
2022/10/23 04:52:57;;;;;;;370.50;121.20;;;7.60;99.90;;;;;;5109061;27;20494;-76
2022/10/23 04:55:25;;;;;;;298.53;120.23;;;7.60;99.90;;;;;;5115244;27;20457;-75
2022/10/23 04:57:52;;;;;;;184.70;74.50;;;7.60;99.90;;;;;;5110166;27;20458;-75
2022/10/23 05:00:19;;;;;;;157.60;71.27;;;7.60;99.90;;;;;;5109927;27;21018;-75
2022/10/23 05:02:48;;;;;;;162.37;65.07;;;7.60;99.90;;;;;;5120934;27;20544;-76
2022/10/23 05:05:15;;;;;;;159.87;71.47;;;7.60;99.90;;;;;;5113943;27;20514;-75
2022/10/23 05:07:42;;;;;;;44.57;19.10;;;7.60;99.90;;;;;;5113143;27;20458;-75
2022/10/23 05:10:09;;;;;;;157.20;22.57;;;7.50;99.90;;;;;;5109825;27;20538;-76
2022/10/23 05:12:36;;;;;;;60.97;14.23;;;7.50;99.90;;;;;;5117593;27;20501;-75
2022/10/23 05:15:03;;;;;;;94.73;37.40;;;7.60;99.90;;;;;;5120375;27;20509;-76
2022/10/23 05:17:34;;;;;;;96.73;37.30;;;7.50;99.90;;;;;;5112242;27;20466;-76
2022/10/23 05:20:06;;;;;;;78.90;26.70;;;7.60;99.90;;;;;;5105831;28;20446;-75
2022/10/23 05:22:35;;;;;;;58.43;15.43;;;7.60;99.90;;;;;;5116368;27;20520;-75
2022/10/23 05:25:04;;;;;;;74.47;14.10;;;7.80;99.90;;;;;;5109176;27;20453;-75
2022/10/23 05:27:31;;;;;;;86.90;16.63;;;7.60;99.90;;;;;;5114830;27;20570;-76
2022/10/23 05:29:58;;;;;;;62.80;10.83;;;7.50;99.90;;;;;;5118905;27;20480;-75
2022/10/23 05:32:27;;;;;;;37.93;11.90;;;7.50;99.90;;;;;;5119607;27;20783;-76
2022/10/23 05:34:55;;;;;;;36.30;7.93;;;7.40;99.90;;;;;;5118999;27;20947;-75
2022/10/23 05:37:23;;;;;;;6.73;4.53;;;7.30;99.90;;;;;;5111713;27;20465;-76
2022/10/23 05:39:50;;;;;;;17.93;5.60;;;7.30;99.90;;;;;;5105204;27;20612;-75
2022/10/23 05:42:17;;;;;;;99.23;30.10;;;7.20;99.90;;;;;;5107681;27;20617;-76
2022/10/23 05:44:44;;;;;;;26.73;10.77;;;7.20;99.90;;;;;;5115015;27;20457;-76
2022/10/23 05:47:11;;;;;;;13.70;8.23;;;7.30;99.90;;;;;;5112023;27;20495;-76
2022/10/23 05:49:38;;;;;;;43.17;11.83;;;7.30;99.90;;;;;;5107000;27;20521;-75
2022/10/23 05:52:05;;;;;;;9.97;5.27;;;7.30;99.90;;;;;;5114117;27;20522;-76
2022/10/23 05:54:33;;;;;;;19.50;9.30;;;7.30;99.90;;;;;;5115221;27;20904;-76
2022/10/23 05:57:00;;;;;;;13.67;6.13;;;7.30;99.90;;;;;;5121861;27;20473;-76
2022/10/23 05:59:27;;;;;;;10.20;5.13;;;7.30;99.90;;;;;;5116364;27;20606;-76
2022/10/23 06:01:54;;;;;;;12.83;5.63;;;7.30;99.90;;;;;;5116949;27;20468;-76
2022/10/23 06:04:21;;;;;;;25.50;7.70;;;7.30;99.90;;;;;;5106519;27;20594;-76
2022/10/23 06:06:48;;;;;;;16.00;6.60;;;7.40;99.90;;;;;;5111601;27;20551;-76
2022/10/23 06:09:15;;;;;;;26.50;6.00;;;7.30;99.90;;;;;;5109667;27;20979;-76
2022/10/23 06:11:44;;;;;;;4.20;1.60;;;7.40;99.90;;;;;;5120059;27;20469;-76
2022/10/23 06:14:11;;;;;;;11.50;3.80;;;7.40;99.90;;;;;;5116154;27;20487;-76
2022/10/23 06:16:38;;;;;;;17.43;7.03;;;7.40;99.90;;;;;;5110563;27;20453;-76
2022/10/23 06:19:05;;;;;;;13.33;4.50;;;7.50;99.90;;;;;;5107504;27;20450;-76
2022/10/23 06:21:36;;;;;;;15.33;3.53;;;7.50;99.90;;;;;;5115812;27;20519;-76
2022/10/23 06:24:03;;;;;;;15.47;4.43;;;7.50;99.90;;;;;;5105353;27;20515;-76
2022/10/23 06:26:30;;;;;;;34.77;8.90;;;7.80;99.90;;;;;;5112164;27;20488;-76
2022/10/23 06:28:58;;;;;;;61.47;9.83;;;7.90;99.90;;;;;;5118446;27;20514;-76
2022/10/23 06:31:27;;;;;;;6.17;3.60;;;8.00;99.90;;;;;;5107541;27;20537;-76
2022/10/23 06:33:54;;;;;;;26.63;5.37;;;8.00;99.90;;;;;;5117575;27;20457;-76
2022/10/23 06:36:20;;;;;;;31.13;4.60;;;8.10;99.90;;;;;;5117325;27;20523;-76
2022/10/23 06:38:48;;;;;;;12.13;3.07;;;8.00;99.90;;;;;;5106017;27;20533;-76
2022/10/23 06:41:17;;;;;;;40.90;5.10;;;8.00;99.90;;;;;;5110946;27;20469;-76
2022/10/23 06:43:44;;;;;;;36.47;7.60;;;8.10;99.90;;;;;;5108022;27;20510;-76
2022/10/23 06:46:12;;;;;;;49.17;8.63;;;8.20;99.90;;;;;;5112772;27;20932;-76
2022/10/23 06:48:41;;;;;;;24.40;4.60;;;8.30;99.90;;;;;;5112014;27;20458;-75
2022/10/23 06:51:10;;;;;;;6.23;3.00;;;8.40;99.90;;;;;;5108964;27;20482;-76
2022/10/23 06:53:38;;;;;;;22.90;4.17;;;8.40;99.90;;;;;;5112739;27;20461;-76
2022/10/23 06:56:06;;;;;;;35.33;6.27;;;8.50;99.90;;;;;;5109088;27;20465;-76
2022/10/23 06:58:35;;;;;;;22.90;5.20;;;8.40;99.90;;;;;;5109238;27;20892;-75
2022/10/23 07:01:03;;;;;;;16.90;4.50;;;8.40;99.90;;;;;;5106556;27;20648;-76
2022/10/23 07:03:33;;;;;;;13.30;3.97;;;8.50;99.90;;;;;;5109975;27;20566;-75
2022/10/23 07:06:01;;;;;;;22.60;5.80;;;8.60;99.90;;;;;;5109096;27;20852;-75
2022/10/23 07:08:28;;;;;;;21.73;6.33;;;8.50;99.90;;;;;;5114627;27;20457;-76
2022/10/23 07:10:55;;;;;;;78.90;14.27;;;8.60;99.90;;;;;;5110098;27;21012;-76
2022/10/23 07:13:23;;;;;;;48.30;8.17;;;8.70;99.90;;;;;;5110279;27;20469;-75
2022/10/23 07:15:51;;;;;;;188.27;24.50;;;8.50;99.90;;;;;;5114072;27;20477;-76
2022/10/23 07:18:18;;;;;;;267.70;33.80;;;8.60;99.90;;;;;;5110542;27;20509;-76
2022/10/23 07:20:48;;;;;;;144.63;17.60;;;8.70;99.90;;;;;;5108784;27;20461;-76
2022/10/23 07:23:15;;;;;;;49.17;8.83;;;8.70;99.90;;;;;;5116107;27;20449;-76
2022/10/23 07:25:43;;;;;;;17.67;5.60;;;8.70;99.90;;;;;;5109985;27;20441;-76
2022/10/23 07:28:10;;;;;;;44.50;8.50;;;8.60;99.90;;;;;;5109911;27;20999;-76
2022/10/23 07:30:36;;;;;;;81.17;12.17;;;8.60;99.90;;;;;;5107077;27;20547;-75
2022/10/23 07:33:04;;;;;;;228.63;34.57;;;8.70;99.90;;;;;;5112316;27;21155;-75
2022/10/23 07:35:31;;;;;;;156.93;23.30;;;8.80;99.90;;;;;;5108601;27;20470;-75
2022/10/23 07:38:00;;;;;;;357.17;50.23;;;8.80;99.90;;;;;;5113924;27;20514;-75
2022/10/23 07:40:27;;;;;;;287.43;36.77;;;8.80;99.90;;;;;;5117941;27;20521;-76
2022/10/23 07:42:54;;;;;;;109.67;20.13;;;8.80;99.90;;;;;;5115394;27;20525;-76
2022/10/23 07:45:21;;;;;;;46.63;9.00;;;8.90;99.90;;;;;;5109955;27;20527;-75
2022/10/23 07:47:50;;;;;;;4.90;2.97;;;9.00;99.90;;;;;;5100365;27;20533;-75
2022/10/23 07:50:17;;;;;;;1.67;1.40;;;8.90;99.90;;;;;;5109408;27;20484;-75
2022/10/23 07:52:44;;;;;;;6.90;1.73;;;8.90;99.90;;;;;;5106722;27;21081;-75
2022/10/23 07:55:13;;;;;;;13.90;3.30;;;8.90;99.90;;;;;;5109415;27;20454;-75
2022/10/23 07:57:40;;;;;;;4.50;2.90;;;9.00;99.90;;;;;;5108435;28;20470;-75
2022/10/23 08:00:09;;;;;;;3.93;1.53;;;9.20;99.90;;;;;;5107218;27;20526;-75
2022/10/23 08:02:37;;;;;;;9.93;2.27;;;9.40;99.90;;;;;;5105450;28;20481;-75
2022/10/23 08:05:04;;;;;;;16.80;4.00;;;9.40;99.90;;;;;;5110234;27;21127;-76
2022/10/23 08:07:31;;;;;;;222.40;31.10;;;9.80;99.90;;;;;;5103177;28;20523;-76
2022/10/23 08:09:58;;;;;;;121.93;17.87;;;9.90;99.90;;;;;;5107186;27;20492;-75
2022/10/23 08:12:26;;;;;;;57.03;6.20;;;10.00;99.90;;;;;;5103805;27;20529;-76
2022/10/23 08:14:53;;;;;;;95.30;11.80;;;10.00;99.90;;;;;;5105747;27;21187;-76
2022/10/23 08:17:20;;;;;;;91.83;11.50;;;9.70;99.90;;;;;;5107577;27;20484;-75
2022/10/23 08:19:48;;;;;;;141.53;20.70;;;9.80;99.90;;;;;;5110743;27;20498;-76
2022/10/23 08:22:15;;;;;;;166.07;17.97;;;10.10;99.90;;;;;;5108099;27;20990;-76
2022/10/23 08:24:42;;;;;;;67.73;11.00;;;10.10;99.90;;;;;;5115290;27;20472;-76
2022/10/23 08:27:09;;;;;;;43.93;5.87;;;10.20;99.90;;;;;;5116834;27;20538;-76
2022/10/23 08:29:37;;;;;;;70.10;9.13;;;10.00;99.90;;;;;;5108143;27;20461;-76
2022/10/23 08:32:05;;;;;;;59.17;8.17;;;10.00;99.90;;;;;;5112282;27;20885;-76
2022/10/23 08:34:32;;;;;;;79.57;10.97;;;9.90;99.90;;;;;;5111820;27;20469;-76
2022/10/23 08:36:59;;;;;;;22.83;4.83;;;9.80;99.90;;;;;;5111461;27;20813;-76
2022/10/23 08:39:26;;;;;;;21.07;3.87;;;10.10;99.90;;;;;;5122068;27;20481;-76
2022/10/23 08:41:53;;;;;;;35.43;7.10;;;10.40;99.90;;;;;;5114697;27;20473;-76
2022/10/23 08:44:25;;;;;;;40.43;3.90;;;10.90;99.90;;;;;;5111276;27;20457;-76
2022/10/23 08:47:04;;;;;;;50.70;9.17;;;11.00;99.90;;;;;;5111022;27;20530;-76
2022/10/23 08:49:40;;;;;;;21.67;3.37;;;10.60;99.90;;;;;;5105854;27;20518;-76
2022/10/23 08:52:20;;;;;;;30.67;3.97;;;10.50;99.90;;;;;;5110075;27;21179;-76
2022/10/23 08:54:57;;;;;;;1.40;1.30;;;10.80;99.90;;;;;;5108422;27;20586;-76
2022/10/23 08:57:31;;;;;;;28.43;3.23;;;11.00;99.90;;;;;;5110329;27;20475;-76
2022/10/23 09:00:00;;;;;;;20.33;4.43;;;11.20;99.90;;;;;;5107667;27;20459;-76
2022/10/23 09:02:32;;;;;;;18.33;2.47;;;11.10;99.90;;;;;;5124289;27;20441;-76
2022/10/23 09:04:59;;;;;;;8.57;2.27;;;11.20;99.90;;;;;;5111570;27;21183;-76
2022/10/23 09:07:39;;;;;;;21.77;1.70;;;11.20;99.90;;;;;;5106277;27;20572;-76
2022/10/23 09:10:25;;;;;;;1.23;1.00;;;11.20;99.90;;;;;;5107045;27;20534;-76
2022/10/23 09:12:52;;;;;;;8.27;1.60;;;11.10;99.90;;;;;;5106166;27;20466;-76
2022/10/23 09:15:27;;;;;;;1.80;0.90;;;10.90;99.90;;;;;;5111894;27;20456;-76
2022/10/23 09:17:59;;;;;;;0.97;0.90;;;11.00;99.90;;;;;;5111018;27;20463;-76
2022/10/23 09:20:28;;;;;;;0.80;0.80;;;10.70;99.90;;;;;;5105637;27;20515;-76
2022/10/23 09:22:59;;;;;;;1.33;1.00;;;10.60;99.90;;;;;;5105010;27;20451;-76
2022/10/23 09:25:29;;;;;;;2.20;1.23;;;10.80;99.90;;;;;;5106082;27;20566;-77
2022/10/23 09:27:59;;;;;;;7.00;1.17;;;10.90;99.90;;;;;;5107255;27;20572;-76
2022/10/23 09:30:32;;;;;;;9.67;1.70;;;11.10;99.90;;;;;;5094708;27;20515;-77
2022/10/23 09:33:01;;;;;;;3.10;1.60;;;11.10;99.90;;;;;;5097528;27;21284;-76
2022/10/23 09:35:30;;;;;;;6.10;1.53;;;11.20;99.90;;;;;;5099205;27;20489;-76
2022/10/23 09:37:57;;;;;;;1.30;1.20;;;11.00;99.90;;;;;;5106800;27;20459;-76
2022/10/23 09:40:32;;;;;;;5.60;1.13;;;11.10;99.90;;;;;;5115275;27;21318;-76
2022/10/23 09:43:02;;;;;;;1.53;1.43;;;11.30;99.90;;;;;;5103790;28;21113;-76
2022/10/23 09:45:32;;;;;;;1.20;1.10;;;11.50;99.90;;;;;;5103474;27;20938;-76
2022/10/23 09:48:12;;;;;;;3.20;1.33;;;11.60;99.90;;;;;;5107277;27;20492;-76
2022/10/23 09:50:48;;;;;;;3.87;1.30;;;11.70;99.90;;;;;;5111718;27;20517;-76
2022/10/23 09:53:18;;;;;;;1.63;1.53;;;11.80;99.90;;;;;;5105102;27;20461;-76
2022/10/23 09:55:53;;;;;;;1.17;1.07;;;12.20;99.90;;;;;;5108797;27;20519;-76
2022/10/23 09:58:22;;;;;;;3.67;1.43;;;12.10;99.90;;;;;;5106036;27;20525;-76
2022/10/23 10:00:49;;;;;;;1.70;1.63;;;12.20;99.90;;;;;;5108192;27;20453;-77
2022/10/23 10:03:23;;;;;;;1.57;1.47;;;12.10;99.90;;;;;;5103707;27;20452;-76
2022/10/23 10:05:57;;;;;;;1.00;1.00;;;12.30;99.90;;;;;;5104462;27;20469;-76
2022/10/23 10:08:35;;;;;;;1.60;1.50;;;12.60;99.90;;;;;;5110376;27;20492;-76
2022/10/23 10:11:09;;;;;;;1.90;1.80;;;12.50;99.90;;;;;;5109423;27;20479;-78
2022/10/23 10:13:58;;;;;;;0.80;0.80;;;12.50;99.90;;;;;;5104375;27;20526;-76
2022/10/23 10:16:37;;;;;;;1.47;1.37;;;12.40;99.90;;;;;;5108219;27;20468;-76
2022/10/23 10:19:15;;;;;;;0.97;0.97;;;12.50;99.90;;;;;;5105197;27;20528;-75
2022/10/23 10:21:48;;;;;;;1.40;1.30;;;12.40;99.90;;;;;;5107526;27;20533;-75
2022/10/23 10:24:20;;;;;;;1.33;1.27;;;12.40;99.90;;;;;;5106538;27;20461;-77
2022/10/23 10:26:58;;;;;;;1.33;1.10;;;12.50;99.90;;;;;;5108645;27;20492;-77
2022/10/23 10:29:40;;;;;;;1.43;1.33;;;12.60;99.90;;;;;;5105964;27;20469;-77
2022/10/23 10:32:19;;;;;;;1.47;1.37;;;13.00;99.90;;;;;;5107065;27;20834;-78
2022/10/23 10:34:55;;;;;;;2.70;2.50;;;13.10;99.90;;;;;;5108732;27;20445;-77
2022/10/23 10:37:29;;;;;;;1.10;1.10;;;13.20;99.90;;;;;;5103793;27;20517;-77
2022/10/23 10:40:03;;;;;;;1.37;1.27;;;13.30;99.90;;;;;;5108918;27;20833;-76
2022/10/23 10:42:57;;;;;;;1.60;1.50;;;13.50;99.90;;;;;;5113678;27;20870;-76
2022/10/23 10:45:32;;;;;;;1.50;1.40;;;13.90;99.90;;;;;;5115129;27;20462;-76
2022/10/23 10:48:14;;;;;;;3.33;1.60;;;13.90;99.90;;;;;;5106774;27;20464;-77
2022/10/23 10:50:48;;;;;;;2.03;1.93;;;13.80;99.90;;;;;;5112321;27;20549;-76
2022/10/23 10:53:23;;;;;;;3.40;1.83;;;13.50;99.90;;;;;;5106447;27;20532;-76
2022/10/23 10:55:54;;;;;;;1.93;1.83;;;14.10;99.90;;;;;;5105062;27;20506;-76
2022/10/23 10:58:38;;;;;;;2.50;1.73;;;14.30;99.90;;;;;;5110067;27;20479;-76
2022/10/23 11:01:14;;;;;;;2.50;1.50;;;14.30;99.90;;;;;;5102713;27;20494;-76
2022/10/23 11:03:48;;;;;;;1.60;1.50;;;14.70;99.90;;;;;;5106305;27;20495;-77
2022/10/23 11:06:20;;;;;;;1.90;1.80;;;14.80;99.90;;;;;;5112820;27;20541;-76
2022/10/23 11:08:47;;;;;;;2.27;1.40;;;14.70;99.90;;;;;;5106117;27;20461;-76
2022/10/23 11:11:20;;;;;;;1.67;1.57;;;14.80;99.90;;;;;;5108507;27;20588;-76
2022/10/23 11:13:49;;;;;;;1.37;1.30;;;14.90;99.90;;;;;;5102707;28;20878;-76
2022/10/23 11:16:22;;;;;;;3.20;1.57;;;14.90;99.90;;;;;;5110495;27;21068;-76
2022/10/23 11:18:57;;;;;;;2.07;1.87;;;14.90;99.90;;;;;;5106390;27;20471;-76
2022/10/23 11:21:35;;;;;;;2.10;2.00;;;14.80;99.90;;;;;;5104405;27;20494;-76
2022/10/23 11:24:46;;;;;;;2.03;1.93;;;14.40;99.90;;;;;;5101280;27;20457;-77
2022/10/23 11:27:27;;;;;;;2.70;2.50;;;14.10;99.90;;;;;;5101600;27;20518;-77
2022/10/23 11:30:15;;;;;;;2.80;2.60;;;14.20;99.90;;;;;;5099765;27;20593;-76
2022/10/23 11:32:59;;;;;;;2.27;2.10;;;14.20;99.90;;;;;;5110439;27;20544;-76
2022/10/23 11:35:42;;;;;;;2.43;1.90;;;14.40;99.90;;;;;;5105210;27;20848;-77
2022/10/23 11:38:17;;;;;;;2.97;2.17;;;14.30;99.90;;;;;;5103268;27;20489;-77
2022/10/23 11:40:46;;;;;;;2.80;2.50;;;14.20;99.90;;;;;;5106504;27;20490;-77
2022/10/23 11:43:13;;;;;;;2.60;2.40;;;14.40;99.90;;;;;;5108563;27;20985;-76
2022/10/23 11:45:41;;;;;;;2.97;2.77;;;14.20;99.90;;;;;;5099202;27;20602;-76
2022/10/23 11:48:21;;;;;;;3.53;2.90;;;14.20;99.90;;;;;;5101012;27;20462;-76
2022/10/23 11:50:53;;;;;;;3.50;3.30;;;14.20;99.90;;;;;;5105072;27;20487;-76
2022/10/23 11:53:38;;;;;;;3.50;3.20;;;14.50;99.90;;;;;;5106893;28;20946;-76
2022/10/23 11:56:24;;;;;;;4.13;3.73;;;14.70;99.90;;;;;;5103769;27;20467;-76
2022/10/23 11:58:52;;;;;;;3.73;3.47;;;14.80;99.90;;;;;;5113666;27;20485;-76
2022/10/23 12:01:35;;;;;;;3.77;3.47;;;14.70;99.90;;;;;;5109448;28;20482;-76
2022/10/23 12:04:06;;;;;;;3.67;3.43;;;14.90;99.90;;;;;;5107283;27;20940;-77
2022/10/23 12:06:40;;;;;;;3.67;3.47;;;14.90;99.90;;;;;;5113576;28;20466;-76
2022/10/23 12:09:24;;;;;;;4.17;3.87;;;14.80;99.90;;;;;;5102123;28;20442;-76
2022/10/23 12:12:13;;;;;;;5.23;4.10;;;14.70;99.90;;;;;;5109180;28;20517;-76
2022/10/23 12:14:43;;;;;;;4.53;4.23;;;14.70;99.90;;;;;;5103046;28;20478;-76
2022/10/23 12:17:31;;;;;;;5.50;5.00;;;14.50;99.90;;;;;;5109274;27;20552;-76
2022/10/23 12:20:12;;;;;;;4.33;3.97;;;14.60;99.90;;;;;;5104229;28;20862;-77
2022/10/23 12:22:46;;;;;;;4.13;3.83;;;14.70;99.90;;;;;;5102295;28;20997;-77
2022/10/23 12:25:17;;;;;;;4.03;3.73;;;14.80;99.90;;;;;;5104400;27;20455;-77
2022/10/23 12:27:48;;;;;;;3.90;3.67;;;14.90;99.90;;;;;;5103843;28;20552;-76
2022/10/23 12:30:21;;;;;;;4.63;4.33;;;14.90;99.90;;;;;;5100223;28;21099;-77
2022/10/23 12:33:07;;;;;;;4.10;3.90;;;15.00;99.90;;;;;;5103821;27;20567;-77
2022/10/23 12:36:15;;;;;;;4.00;3.80;;;15.00;99.90;;;;;;5105216;28;21126;-76
2022/10/23 12:38:44;;;;;;;4.50;4.20;;;15.10;99.90;;;;;;5103917;28;20526;-76
2022/10/23 12:41:15;;;;;;;3.60;3.40;;;15.20;99.90;;;;;;5103060;28;20461;-77
2022/10/23 12:43:44;;;;;;;4.17;3.77;;;15.40;99.90;;;;;;5104541;28;20455;-77
2022/10/23 12:46:28;;;;;;;3.90;3.60;;;15.50;99.90;;;;;;5099709;28;20794;-76
2022/10/23 12:48:56;;;;;;;4.17;3.87;;;15.60;99.90;;;;;;5102391;28;20938;-77
2022/10/23 12:51:25;;;;;;;4.30;4.00;;;15.60;99.90;;;;;;5102522;28;20488;-77
2022/10/23 12:53:52;;;;;;;3.47;3.27;;;15.70;99.90;;;;;;5110379;28;20542;-77
2022/10/23 12:56:21;;;;;;;3.27;3.07;;;15.80;99.90;;;;;;5095838;27;20963;-78
2022/10/23 12:58:51;;;;;;;6.67;3.70;;;15.90;99.90;;;;;;5104138;28;20462;-77
2022/10/23 13:01:24;;;;;;;3.93;3.63;;;15.90;99.90;;;;;;5112671;27;20528;-77
2022/10/23 13:03:52;;;;;;;3.60;3.40;;;16.00;99.90;;;;;;5110017;27;20908;-77